Time;durP1;ratioP1;P1;durP2;ratioP2;P2;SDS_P1;SDS_P2;PMS_P1;PMS_P2;Temp;Humidity;BMP_temperature;BMP_pressure;BME280_temperature;BME280_humidity;BME280_pressure;Samples;Min_cycle;Max_cycle;Signal;HPM_P1;HPM_P2
2022/02/07 00:02:02;;;;;;;18.42;6.47;;;;;;;11.32;84.82;100550.06;5060344;28;20044;-80
2022/02/07 00:04:35;;;;;;;13.70;6.35;;;;;;;11.31;85.01;100572.72;5059333;28;20025;-80
2022/02/07 00:07:09;;;;;;;15.77;6.05;;;;;;;11.20;85.82;100564.09;5061321;28;20490;-80
2022/02/07 00:09:39;;;;;;;17.65;6.82;;;;;;;11.16;87.15;100546.47;5060492;28;20028;-80
2022/02/07 00:12:05;;;;;;;22.15;7.07;;;;;;;11.19;88.23;100554.13;5060195;28;20028;-80
2022/02/07 00:14:33;;;;;;;17.08;6.97;;;;;;;11.15;88.59;100547.63;5059717;28;20036;-80
2022/02/07 00:17:01;;;;;;;20.52;8.02;;;;;;;11.13;88.40;100548.00;5060702;28;20029;-80
2022/02/07 00:19:29;;;;;;;15.40;7.47;;;;;;;11.16;88.23;100532.53;5057512;28;20082;-80
2022/02/07 00:21:57;;;;;;;10.48;6.88;;;;;;;11.15;87.01;100520.59;5058480;28;20459;-80
2022/02/07 00:24:29;;;;;;;19.98;6.78;;;;;;;11.02;86.76;100508.75;5059862;28;20048;-80
2022/02/07 00:26:57;;;;;;;21.25;7.70;;;;;;;10.90;86.70;100506.00;5057904;28;20040;-80
2022/02/07 00:29:27;;;;;;;16.33;6.78;;;;;;;10.96;86.26;100512.94;5058833;28;20119;-80
2022/02/07 00:31:53;;;;;;;16.92;8.85;;;;;;;10.96;85.29;100526.84;5060277;28;20056;-80
2022/02/07 00:34:19;;;;;;;16.23;8.07;;;;;;;10.96;85.38;100526.03;5059502;28;20085;-80
2022/02/07 00:36:46;;;;;;;14.40;7.57;;;;;;;11.04;83.57;100518.72;5056720;28;20087;-80
2022/02/07 00:39:27;;;;;;;22.70;7.43;;;;;;;10.95;82.76;100497.41;5057410;28;20044;-80
2022/02/07 00:42:00;;;;;;;12.45;6.97;;;;;;;11.03;81.17;100495.63;5059936;28;20125;-79
2022/02/07 00:44:33;;;;;;;;;;;;;;;11.02;81.53;100494.81;5062475;28;20032;-80
2022/02/07 00:47:09;;;;;;;8.88;5.72;;;;;;;10.98;80.54;100504.25;5059969;28;19912;-80
2022/02/07 00:49:35;;;;;;;12.38;5.95;;;;;;;10.99;80.20;100492.72;5060757;28;20406;-80
2022/02/07 00:52:03;;;;;;;11.85;5.93;;;;;;;10.91;80.82;100482.56;5061144;28;20083;-80
2022/02/07 00:54:31;;;;;;;9.68;6.32;;;;;;;11.00;80.39;100487.97;5060858;28;20125;-79
2022/02/07 00:56:59;;;;;;;12.32;6.03;;;;;;;11.01;81.19;100490.38;5061564;28;20045;-80
2022/02/07 00:59:25;;;;;;;15.82;6.07;;;;;;;10.99;81.40;100492.72;5061433;28;20104;-80
2022/02/07 01:01:50;;;;;;;11.90;6.47;;;;;;;10.98;82.70;100493.91;5061747;28;20032;-80
2022/02/07 01:04:16;;;;;;;18.15;6.78;;;;;;;11.06;82.79;100491.31;5061601;28;20033;-80
2022/02/07 01:06:44;;;;;;;13.75;7.30;;;;;;;10.99;83.63;100492.72;5061952;28;20025;-80
2022/02/07 01:09:22;;;;;;;12.45;6.57;;;;;;;10.98;84.06;100493.91;5061892;28;20037;-80
2022/02/07 01:54:45;;;;;;;17.77;10.98;;;;;;;10.97;88.19;100460.84;5084069;28;20036;-81
2022/02/07 01:57:13;;;;;;;15.80;11.18;;;;;;;10.97;88.60;100444.97;5065793;28;20028;-81
2022/02/07 01:59:41;;;;;;;19.02;10.73;;;;;;;10.88;87.99;100435.97;5065337;28;20037;-81
2022/02/07 02:02:07;;;;;;;22.45;11.68;;;;;;;10.83;88.43;100427.88;5065901;28;20112;-79
2022/02/07 02:04:36;;;;;;;20.58;11.15;;;;;;;10.90;88.25;100433.63;5065334;28;20060;-79
2022/02/07 02:07:05;;;;;;;18.73;11.10;;;;;;;10.90;87.75;100421.69;5066390;28;20036;-79
2022/02/07 02:09:33;;;;;;;16.15;11.07;;;;;;;10.92;87.78;100420.19;5065993;28;20530;-79
2022/02/07 02:12:02;;;;;;;14.63;11.02;;;;;;;10.91;88.00;100415.75;5066824;28;20025;-80
2022/02/07 02:32:47;;;;;;;;;;;;;;;10.92;87.97;100375.63;5078252;28;20082;-80
2022/02/07 02:46:53;;;;;;;12.95;6.35;;;;;;;11.16;87.13;100334.81;5081449;28;20063;-80
2022/02/07 02:49:19;;;;;;;23.75;7.30;;;;;;;11.24;85.94;100326.25;5062917;28;20043;-79
2022/02/07 02:51:50;;;;;;;17.75;6.68;;;;;;;11.25;84.82;100322.31;5060326;28;20467;-79
2022/02/07 02:54:18;;;;;;;13.13;6.28;;;;;;;11.18;84.08;100335.25;5059874;28;20025;-79
2022/02/07 02:56:46;;;;;;;12.38;6.78;;;;;;;11.02;83.44;100301.88;5061406;28;20024;-79
2022/02/07 02:59:11;;;;;;;13.15;6.85;;;;;;;11.18;82.31;100324.09;5061953;28;20524;-79
2022/02/07 03:01:37;;;;;;;12.15;6.22;;;;;;;11.12;81.99;100318.00;5061946;28;20036;-79
2022/02/07 03:04:03;;;;;;;11.40;5.93;;;;;;;11.12;79.59;100320.00;5060922;28;20032;-79
2022/02/07 03:06:34;;;;;;;11.50;5.60;;;;;;;11.02;78.59;100321.34;5062505;28;20036;-79
2022/02/07 03:09:13;;;;;;;12.68;4.75;;;;;;;11.10;77.97;100320.38;5060219;28;20020;-79
2022/02/07 03:11:41;;;;;;;13.35;5.53;;;;;;;11.12;76.79;100323.56;5061179;28;20123;-79
2022/02/07 03:14:19;;;;;;;5.38;3.45;;;;;;;11.02;76.39;100307.44;5061118;28;20028;-79
2022/02/07 03:16:51;;;;;;;13.02;5.88;;;;;;;11.02;76.68;100294.34;5079440;28;20478;-79
2022/02/07 03:19:18;;;;;;;18.52;6.30;;;;;;;11.07;77.39;100300.78;5061477;28;20028;-79
2022/02/07 03:21:44;;;;;;;9.63;6.72;;;;;;;11.05;78.14;100297.56;5061871;28;20093;-79
2022/02/07 03:24:12;;;;;;;13.63;6.93;;;;;;;11.05;79.16;100294.78;5061978;28;20024;-79
2022/02/07 03:26:59;;;;;;;11.98;5.32;;;;;;;10.90;80.88;100282.50;5062242;28;20119;-79
2022/02/07 03:29:27;;;;;;;21.05;7.05;;;;;;;10.94;80.92;100288.97;5062154;28;20031;-79
2022/02/07 03:31:58;;;;;;;10.93;7.05;;;;;;;10.90;80.75;100280.53;5062406;28;20391;-79
2022/02/07 03:34:26;;;;;;;11.73;7.82;;;;;;;10.82;81.22;100275.97;5061729;28;20016;-79
2022/02/07 03:36:54;;;;;;;11.75;7.47;;;;;;;10.79;81.39;100275.88;5057822;28;20053;-79
2022/02/07 03:39:23;;;;;;;12.63;6.05;;;;;;;10.82;81.29;100275.97;5057918;28;20040;-79
2022/02/07 03:41:53;;;;;;;17.48;5.90;;;;;;;10.80;80.91;100272.72;5057302;28;20114;-79
2022/02/07 03:44:19;;;;;;;11.95;5.63;;;;;;;10.82;81.33;100269.59;5057264;28;20035;-79
2022/02/07 03:46:47;;;;;;;8.82;5.93;;;;;;;10.78;81.68;100263.16;5057999;28;20044;-78
2022/02/07 03:49:15;;;;;;;14.85;5.60;;;;;;;10.80;82.56;100269.94;5057566;28;20115;-79
2022/02/07 03:51:46;;;;;;;15.07;6.78;;;;;;;10.77;83.23;100262.34;5058409;28;20132;-79
2022/02/07 03:54:12;;;;;;;16.23;7.03;;;;;;;10.62;83.00;100247.28;5059399;28;20088;-79
2022/02/07 03:56:40;;;;;;;11.60;6.72;;;;;;;10.71;83.08;100247.91;5058994;28;20021;-79
2022/02/07 03:59:06;;;;;;;8.55;5.32;;;;;;;10.67;83.77;100246.19;5059960;28;20033;-79
2022/02/07 04:01:35;;;;;;;10.60;5.22;;;;;;;10.67;84.72;100235.06;5060104;28;20100;-79
2022/02/07 04:04:03;;;;;;;15.65;6.03;;;;;;;10.72;84.21;100245.91;5063685;28;20052;-79
2022/02/07 04:06:29;;;;;;;13.35;5.97;;;;;;;10.72;84.30;100234.78;5066074;28;20116;-79
2022/02/07 04:09:05;;;;;;;9.05;5.75;;;;;;;10.76;83.01;100238.47;5057722;28;20428;-79
2022/02/07 04:11:37;;;;;;;13.40;5.70;;;;;;;10.83;83.08;100243.38;5058311;28;20025;-80
2022/02/07 04:14:05;;;;;;;9.07;5.35;;;;;;;10.82;82.69;100241.78;5058900;28;20056;-79
2022/02/07 04:16:37;;;;;;;11.48;5.93;;;;;;;10.81;82.50;100235.38;5063285;28;20028;-79
2022/02/07 04:19:19;;;;;;;11.00;6.18;;;;;;;10.93;81.68;100226.91;5062676;28;20032;-80
2022/02/07 04:21:48;;;;;;;13.15;6.25;;;;;;;10.90;80.42;100232.41;5063410;28;20033;-79
2022/02/07 04:24:17;;;;;;;12.73;7.28;;;;;;;10.75;79.72;100209.00;5061800;28;20074;-79
2022/02/07 04:26:46;;;;;;;15.50;7.03;;;;;;;10.93;80.07;100242.81;5061874;28;20558;-79
2022/02/07 04:29:17;;;;;;;7.95;4.82;;;;;;;10.96;79.92;100234.53;5061758;28;20031;-79
2022/02/07 04:31:45;;;;;;;14.45;5.25;;;;;;;10.91;79.58;100228.44;5061828;28;20126;-79
2022/02/07 04:34:13;;;;;;;15.27;7.60;;;;;;;10.91;79.97;100232.03;5061928;28;20060;-79
2022/02/07 04:36:47;;;;;;;10.75;4.22;;;;;;;10.99;80.63;100242.16;5061870;28;20053;-79
2022/02/07 04:39:15;;;;;;;9.18;4.32;;;;;;;10.96;80.83;100237.31;5062053;28;20029;-79
2022/02/07 04:41:45;;;;;;;5.43;3.58;;;;;;;10.88;80.56;100235.56;5062754;28;20464;-79
2022/02/07 04:44:15;;;;;;;8.70;4.53;;;;;;;10.91;80.61;100228.44;5062911;28;20072;-79
2022/02/07 04:50:07;;;;;;;9.73;3.35;;;;;;;10.93;80.13;100226.91;5063739;28;20048;-79
2022/02/07 04:55:15;;;;;;;7.05;3.10;;;;;;;10.77;80.05;100223.38;5063138;28;20064;-79
2022/02/07 04:57:50;;;;;;;20.83;6.15;;;;;;;10.75;80.93;100222.91;5063326;28;20485;-79
2022/02/07 05:02:57;;;;;;;11.15;4.07;;;;;;;10.87;81.06;100219.22;5066740;28;20041;-80
2022/02/07 05:16:27;;;;;;;10.35;4.70;;;;;;;10.74;80.97;100199.03;5061898;28;19908;-79
2022/02/07 05:18:57;;;;;;;11.52;3.00;;;;;;;10.79;80.95;100203.53;5060230;28;20060;-79
2022/02/07 05:21:24;;;;;;;8.60;3.58;;;;;;;10.80;80.63;100194.00;5060621;28;20052;-79
2022/02/07 05:23:51;;;;;;;17.75;3.13;;;;;;;10.82;80.90;100198.03;5059860;28;20021;-79
2022/02/07 05:26:19;;;;;;;7.15;2.97;;;;;;;10.80;80.12;100200.38;5058187;28;20024;-78
2022/02/07 05:28:46;;;;;;;7.05;3.45;;;;;;;10.73;79.65;100194.66;5057677;28;20017;-79
2022/02/07 05:31:12;;;;;;;9.77;2.58;;;;;;;10.72;79.42;100193.03;5057821;28;20036;-79
2022/02/07 05:33:40;;;;;;;7.32;2.75;;;;;;;10.74;78.75;100187.91;5056561;28;20025;-79
2022/02/07 05:36:10;;;;;;;12.43;3.60;;;;;;;10.73;78.71;100183.53;5057878;28;20098;-79
2022/02/07 05:38:45;;;;;;;11.15;3.58;;;;;;;10.65;79.15;100165.03;5059261;28;20044;-79
2022/02/07 05:41:16;;;;;;;8.77;3.13;;;;;;;10.61;79.43;100172.53;5060424;28;20028;-79
2022/02/07 05:43:49;;;;;;;23.10;3.60;;;;;;;10.70;79.13;100173.09;5058729;28;20029;-78
2022/02/07 05:46:19;;;;;;;5.95;3.75;;;;;;;10.57;79.61;100169.66;5059164;28;20025;-79
2022/02/07 05:48:47;;;;;;;12.57;3.33;;;;;;;10.57;80.17;100163.28;5042534;28;20056;-79
2022/02/07 05:51:15;;;;;;;6.18;3.13;;;;;;;10.57;80.27;100146.59;5059382;28;20090;-79
2022/02/07 05:53:43;;;;;;;9.95;2.90;;;;;;;10.65;79.95;100162.25;5058128;28;20033;-79
2022/02/07 05:56:09;;;;;;;12.73;2.60;;;;;;;10.62;79.60;100161.03;5059093;28;20025;-79
2022/02/07 05:58:35;;;;;;;5.93;2.95;;;;;;;10.54;79.54;100164.00;5058313;28;20506;-79
2022/02/07 06:01:00;;;;;;;8.07;2.28;;;;;;;10.53;79.27;100146.50;5059049;28;20119;-79
2022/02/07 06:03:30;;;;;;;7.00;2.97;;;;;;;10.54;79.61;100139.75;5060263;28;20029;-79
2022/02/07 06:05:56;;;;;;;6.75;2.33;;;;;;;10.58;79.28;100145.41;5060219;28;20025;-79
2022/02/07 06:08:29;;;;;;;8.65;2.85;;;;;;;10.65;79.39;100148.34;5062057;28;20395;-79
2022/02/07 06:11:06;;;;;;;8.05;3.40;;;;;;;10.54;80.39;100147.31;5061062;28;20040;-79
2022/02/07 06:13:48;;;;;;;8.20;2.38;;;;;;;10.48;80.36;100153.16;5056598;28;20048;-79
2022/02/07 06:16:17;;;;;;;12.10;3.47;;;;;;;10.55;80.45;100144.19;5058381;28;20036;-80
2022/02/07 06:18:48;;;;;;;6.05;2.10;;;;;;;10.66;79.47;100144.41;5059553;28;20036;-79
2022/02/07 06:21:20;;;;;;;23.25;4.30;;;;;;;10.72;78.88;100159.66;5060520;28;20036;-79
2022/02/07 06:23:46;;;;;;;7.95;3.13;;;;;;;10.67;78.42;100151.59;5060668;28;20041;-79
2022/02/07 06:26:14;;;;;;;7.45;2.50;;;;;;;10.71;79.42;100141.34;5057759;28;20025;-79
2022/02/07 06:28:40;;;;;;;9.73;3.67;;;;;;;10.63;79.42;100142.34;5059238;28;20094;-79
2022/02/07 06:31:05;;;;;;;9.93;3.40;;;;;;;10.75;79.21;100142.22;5060577;28;20028;-80
2022/02/07 06:33:33;;;;;;;9.93;4.13;;;;;;;10.81;78.62;100145.50;5063767;28;20028;-79
2022/02/07 06:36:05;;;;;;;12.15;3.63;;;;;;;10.89;78.73;100134.16;5058442;28;20083;-79
2022/02/07 06:38:30;;;;;;;9.43;2.78;;;;;;;10.94;78.51;100125.53;5056990;28;20032;-79
2022/02/07 06:40:58;;;;;;;8.80;3.40;;;;;;;10.99;78.14;100130.81;5057732;28;20044;-79
2022/02/07 06:43:24;;;;;;;14.65;4.35;;;;;;;11.06;77.34;100135.69;5057785;28;20087;-79
2022/02/07 06:45:52;;;;;;;10.32;3.67;;;;;;;11.19;76.81;100128.81;5057288;28;20111;-79
2022/02/07 06:48:20;;;;;;;15.20;4.10;;;;;;;11.25;76.09;100126.53;5058063;28;20029;-79
2022/02/07 06:50:48;;;;;;;10.98;3.33;;;;;;;11.32;76.07;100132.22;5056628;28;20029;-79
2022/02/07 06:53:14;;;;;;;11.75;3.42;;;;;;;11.36;76.02;100124.75;5057075;28;20044;-79
2022/02/07 06:55:51;;;;;;;6.95;2.83;;;;;;;11.35;75.61;100117.56;5056800;28;20021;-79
2022/02/07 06:58:17;;;;;;;16.60;3.92;;;;;;;11.42;76.01;100117.69;5056034;28;20025;-79
2022/02/07 07:00:45;;;;;;;12.43;3.33;;;;;;;11.67;75.01;100106.19;5055265;28;20029;-79
2022/02/07 07:03:16;;;;;;;7.70;2.80;;;;;;;11.69;74.46;100112.19;5057141;28;20082;-80
2022/02/07 07:05:42;;;;;;;10.15;2.45;;;;;;;11.78;73.57;100098.81;5057401;28;20108;-79
2022/02/07 07:08:10;;;;;;;9.45;3.22;;;;;;;11.63;73.79;100108.91;5058555;28;20056;-79
2022/02/07 07:10:36;;;;;;;10.65;3.35;;;;;;;11.62;73.89;100098.94;5056655;28;20032;-79
2022/02/07 07:13:15;;;;;;;18.67;3.92;;;;;;;11.56;73.91;100103.22;5057274;28;20028;-79
2022/02/07 07:15:55;;;;;;;7.63;3.05;;;;;;;11.61;74.06;100099.31;5058987;28;20048;-79
2022/02/07 07:18:23;;;;;;;13.27;4.47;;;;;;;11.49;74.04;100084.38;5060164;28;20036;-80
2022/02/07 07:20:51;;;;;;;10.25;4.28;;;;;;;11.53;74.18;100101.97;5058935;28;20059;-79
2022/02/07 07:23:17;;;;;;;11.27;3.90;;;;;;;11.57;73.84;100107.63;5059438;28;20029;-79
2022/02/07 07:25:45;;;;;;;12.88;4.03;;;;;;;11.38;73.80;100108.47;5058080;28;20029;-80
2022/02/07 07:28:13;;;;;;;13.98;3.88;;;;;;;11.53;73.71;100092.81;5059658;28;20024;-80
2022/02/07 07:30:47;;;;;;;11.20;4.57;;;;;;;11.74;72.74;100089.59;5058864;28;20450;-79
2022/02/07 07:33:19;;;;;;;12.95;4.60;;;;;;;11.74;71.59;100082.03;5058381;28;20031;-79
2022/02/07 07:35:48;;;;;;;7.40;4.20;;;;;;;11.73;72.27;100091.56;5059434;28;20463;-80
2022/02/07 07:38:13;;;;;;;12.25;2.67;;;;;;;11.60;73.23;100087.34;5060449;28;20431;-80
2022/02/07 07:40:40;;;;;;;11.20;2.88;;;;;;;11.62;72.55;100084.22;5059244;28;20045;-80
2022/02/07 07:43:07;;;;;;;11.00;3.67;;;;;;;11.53;72.86;100081.66;5059310;28;20025;-80
2022/02/07 07:45:42;;;;;;;8.50;3.40;;;;;;;11.58;73.11;100091.72;5060082;28;20060;-80
2022/02/07 07:48:14;;;;;;;7.20;3.42;;;;;;;11.54;74.04;100088.84;5062308;28;20029;-80
2022/02/07 07:53:26;;;;;;;18.98;3.38;;;;;;;11.58;74.72;100089.72;5057317;28;20036;-80
2022/02/07 08:02:06;;;;;;;6.82;2.60;;;;;;;11.76;75.33;100120.66;5016233;28;20037;-80
2022/02/07 08:04:36;;;;;;;9.23;3.05;;;;;;;11.83;74.85;100112.47;5015590;28;20108;-80
2022/02/07 08:12:25;;;;;;;12.55;5.97;;;;;;;12.18;72.37;100101.06;5057705;28;20064;-80
2022/02/07 08:14:53;;;;;;;12.98;3.72;;;;;;;12.22;71.99;100079.59;5058094;28;20464;-80
2022/02/07 08:17:27;;;;;;;16.40;5.75;;;;;;;12.18;71.28;100097.47;5056931;28;20033;-80
2022/02/07 08:19:53;;;;;;;26.95;6.00;;;;;;;12.10;71.45;100095.78;5057261;28;20033;-80
2022/02/07 08:22:23;;;;;;;16.40;3.65;;;;;;;12.06;70.40;100104.88;5057607;28;20063;-80
2022/02/07 08:24:55;;;;;;;7.57;2.88;;;;;;;11.95;71.45;100106.69;5068320;28;20023;-78
2022/02/07 08:27:29;;;;;;;15.32;5.88;;;;;;;12.04;70.78;100098.88;5059539;28;20032;-78
2022/02/07 08:29:57;;;;;;;20.35;4.60;;;;;;;11.89;71.75;100107.38;5056351;28;20025;-78
2022/02/07 08:32:26;;;;;;;24.23;5.82;;;;;;;11.90;71.99;100112.59;5067655;28;20507;-82
2022/02/07 08:34:59;;;;;;;15.20;5.32;;;;;;;12.02;71.17;100114.34;5069455;28;20029;-76
2022/02/07 08:37:27;;;;;;;;;;;;;;;12.00;71.19;100106.38;5051917;28;20056;-76
2022/02/07 08:39:57;;;;;;;17.60;3.78;;;;;;;11.98;70.65;100107.91;5052110;28;19923;-76
2022/02/07 08:42:23;;;;;;;6.28;3.33;;;;;;;11.73;69.84;100113.06;5053551;28;20029;-75
2022/02/07 08:44:51;;;;;;;11.85;3.63;;;;;;;11.83;70.04;100101.31;5051832;28;20036;-76
2022/02/07 08:47:17;;;;;;;15.13;3.40;;;;;;;11.91;69.64;100102.22;5052222;28;20471;-76
2022/02/07 08:49:45;;;;;;;13.57;4.13;;;;;;;11.75;70.10;100105.13;5052318;28;20037;-76
2022/02/07 08:52:18;;;;;;;10.02;4.35;;;;;;;11.71;70.57;100110.63;5052152;28;20035;-76
2022/02/07 08:54:44;;;;;;;;;;;;;;;11.65;70.91;100105.75;5052666;28;20029;-76
2022/02/07 08:57:30;;;;;;;13.07;3.80;;;;;;;11.67;70.85;100098.66;5053819;28;19944;-76
2022/02/07 09:00:07;;;;;;;10.52;3.88;;;;;;;11.58;71.87;100105.63;5054342;28;20487;-75
2022/02/07 09:02:54;;;;;;;15.93;3.65;;;;;;;11.61;72.32;100104.88;5057027;28;20055;-75
2022/02/07 09:05:38;;;;;;;10.23;3.33;;;;;;;11.61;73.33;100105.72;5055314;28;20025;-76
2022/02/07 09:08:20;;;;;;;12.10;3.28;;;;;;;11.54;74.26;100100.78;5055264;28;20032;-76
2022/02/07 09:10:50;;;;;;;10.65;3.97;;;;;;;11.50;74.38;100097.16;5055642;28;20052;-76
2022/02/07 09:13:28;;;;;;;10.45;4.18;;;;;;;11.55;73.53;100099.59;5055570;28;20029;-75
2022/02/07 09:18:30;;;;;;;;;;;;;;;11.86;71.63;100097.78;5054860;28;20094;-75
2022/02/07 09:21:05;;;;;;;10.70;3.53;;;;;;;11.76;70.88;100096.38;5055748;28;20406;-75
2022/02/07 09:23:31;;;;;;;8.82;4.00;;;;;;;11.83;71.39;100106.09;5055276;28;20091;-75
2022/02/07 09:25:57;;;;;;;19.38;3.97;;;;;;;11.84;71.65;100104.91;5055295;28;20029;-74
2022/02/07 09:28:26;;;;;;;19.33;3.92;;;;;;;11.86;70.48;100110.91;5054960;28;20502;-75
2022/02/07 09:30:54;;;;;;;14.88;4.40;;;;;;;12.10;68.15;100099.34;5055756;28;20379;-75
2022/02/07 09:33:24;;;;;;;9.52;3.25;;;;;;;12.07;65.88;100098.09;5055408;28;20056;-75
2022/02/07 09:35:54;;;;;;;12.75;4.90;;;;;;;11.96;65.57;100060.91;5054721;28;20057;-75
2022/02/07 09:38:24;;;;;;;11.65;3.80;;;;;;;12.12;65.67;100105.34;5054812;28;20017;-75
2022/02/07 09:40:55;;;;;;;18.33;5.47;;;;;;;12.16;65.99;100099.84;5054747;28;20037;-75
2022/02/07 09:43:34;;;;;;;17.77;4.25;;;;;;;11.89;66.17;100099.81;5038493;28;20040;-75
2022/02/07 09:46:12;;;;;;;9.85;3.08;;;;;;;11.89;65.28;100097.03;5054726;28;20036;-75
2022/02/07 09:48:45;;;;;;;22.60;4.70;;;;;;;11.77;64.10;100092.44;5055977;28;20502;-74
2022/02/07 09:51:13;;;;;;;12.60;3.78;;;;;;;11.88;64.28;100095.44;5054897;28;20082;-75
2022/02/07 09:53:40;;;;;;;6.65;2.47;;;;;;;11.82;64.43;100093.31;5055140;28;20021;-75
2022/02/07 09:56:09;;;;;;;12.23;2.70;;;;;;;11.77;64.87;100097.19;5054367;28;20068;-74
2022/02/07 09:58:39;;;;;;;16.20;2.65;;;;;;;11.78;65.92;100107.97;5054522;28;20071;-75
2022/02/07 10:01:08;;;;;;;6.07;2.60;;;;;;;11.80;67.15;100102.84;5054251;28;20063;-75
2022/02/07 10:04:08;;;;;;;8.00;2.97;;;;;;;11.62;70.92;100112.09;5054926;28;20363;-74
2022/02/07 10:17:28;;;;;;;16.05;4.78;;;;;;;11.29;73.62;100105.09;5047081;28;20044;-75
2022/02/07 10:34:52;;;;;;;15.40;2.78;;;;;;;10.93;80.26;100065.47;5060730;28;20130;-76
2022/02/07 10:43:20;;;;;;;16.88;4.05;;;;;;;11.07;83.62;100064.09;5055574;28;20068;-77
2022/02/07 10:46:05;;;;;;;19.48;4.30;;;;;;;10.94;83.70;100055.13;5053812;28;20033;-76
2022/02/07 10:48:38;;;;;;;9.32;5.22;;;;;;;10.98;84.65;100051.25;5054006;28;20492;-76
2022/02/07 10:51:13;;;;;;;10.90;5.15;;;;;;;11.14;84.93;100061.47;5053678;28;20033;-76
2022/02/07 10:53:44;;;;;;;12.18;4.15;;;;;;;11.02;85.16;100041.00;5054515;28;20033;-76
2022/02/07 10:56:11;;;;;;;12.18;3.72;;;;;;;11.03;85.63;100041.78;5053723;28;20098;-76
2022/02/07 10:58:38;;;;;;;15.32;4.60;;;;;;;11.12;85.22;100027.63;5054124;28;20367;-76
2022/02/07 11:01:19;;;;;;;13.07;4.32;;;;;;;11.10;85.82;100035.53;5053647;28;20523;-76
2022/02/07 11:04:00;;;;;;;7.43;3.10;;;;;;;10.96;86.18;100031.31;5053755;28;20115;-76
2022/02/07 11:06:33;;;;;;;10.57;4.93;;;;;;;10.96;86.69;100039.66;5053463;28;20051;-76
2022/02/07 11:18:13;;;;;;;10.77;4.32;;;;;;;10.68;88.98;100000.16;5055500;28;20025;-75
2022/02/07 11:25:48;;;;;;;11.57;5.25;;;;;;;10.61;89.67;99988.91;5054191;28;20373;-77
2022/02/07 11:28:24;;;;;;;;;;;;;;;10.60;90.22;99998.41;5054016;28;20040;-77
2022/02/07 11:31:10;;;;;;;9.80;3.50;;;;;;;10.64;91.04;100000.06;5054834;28;19954;-76
2022/02/07 11:33:51;;;;;;;14.65;5.82;;;;;;;10.72;90.41;99998.25;5053358;28;20033;-76
2022/02/07 11:36:34;;;;;;;10.70;4.80;;;;;;;10.82;91.00;99992.09;5053838;28;20068;-76
2022/02/07 11:39:03;;;;;;;14.23;4.78;;;;;;;10.78;91.04;99984.84;5055862;28;20037;-76
2022/02/07 11:41:54;;;;;;;13.13;5.25;;;;;;;10.88;91.18;99979.47;5053485;28;20032;-76
2022/02/07 11:44:26;;;;;;;25.90;9.48;;;;;;;10.88;90.52;99979.47;5053857;28;20036;-77
2022/02/07 11:47:31;;;;;;;18.27;7.33;;;;;;;11.14;90.32;99964.03;5054202;28;20021;-77
2022/02/07 11:50:06;;;;;;;12.38;4.10;;;;;;;10.92;89.58;99949.72;5054607;28;20329;-77
2022/02/07 11:52:44;;;;;;;8.52;4.15;;;;;;;11.13;89.94;99956.81;5054885;28;20033;-77
2022/02/07 11:55:14;;;;;;;14.82;5.60;;;;;;;11.16;88.62;99964.44;5055952;28;20025;-77
2022/02/07 12:00:57;;;;;;;14.82;4.85;;;;;;;10.98;89.61;99956.59;5046788;28;20045;-76
2022/02/07 12:03:27;;;;;;;17.35;9.50;;;;;;;11.06;89.53;99935.25;5052825;28;20033;-76
2022/02/07 12:05:57;;;;;;;15.80;8.02;;;;;;;10.92;90.38;99930.25;5054121;28;20076;-76
2022/02/07 12:08:32;;;;;;;16.65;5.45;;;;;;;10.95;90.88;99923.91;5053423;28;20075;-76
2022/02/07 12:11:16;;;;;;;20.20;6.40;;;;;;;10.97;91.73;99921.59;5054347;28;20029;-76
2022/02/07 12:13:45;;;;;;;13.40;6.57;;;;;;;10.94;92.01;99915.94;5053784;28;20025;-76
2022/02/07 12:16:14;;;;;;;14.18;4.13;;;;;;;10.91;91.31;99911.13;5052354;28;20029;-75
2022/02/07 12:19:06;;;;;;;19.05;6.13;;;;;;;10.99;91.67;99902.53;5052968;28;20048;-76
2022/02/07 12:21:34;;;;;;;19.48;6.22;;;;;;;11.03;91.97;99902.59;5052203;28;20086;-75
2022/02/07 12:24:08;;;;;;;19.38;4.97;;;;;;;11.01;92.46;99891.81;5052626;28;20546;-75
2022/02/07 12:26:43;;;;;;;23.50;6.82;;;;;;;11.19;92.21;99900.47;5053554;28;20029;-76
2022/02/07 12:29:24;;;;;;;26.33;8.27;;;;;;;11.30;91.67;99906.19;5052704;28;20053;-75
2022/02/07 12:31:53;;;;;;;19.77;6.53;;;;;;;11.44;91.45;99881.31;5052422;28;20056;-75
2022/02/07 12:34:24;;;;;;;18.27;6.05;;;;;;;11.37;91.31;99889.59;5052649;28;20078;-75
2022/02/07 12:36:55;;;;;;;13.20;6.00;;;;;;;11.37;90.98;99891.56;5053961;28;20053;-76
2022/02/07 12:39:27;;;;;;;21.80;7.00;;;;;;;11.30;92.02;99878.34;5056704;28;20036;-76
2022/02/07 12:41:58;;;;;;;15.98;5.15;;;;;;;11.24;92.31;99875.09;5056257;28;20130;-76
2022/02/07 12:44:32;;;;;;;14.10;5.68;;;;;;;11.26;92.36;99869.13;5057468;28;20040;-75
2022/02/07 12:47:02;;;;;;;21.90;6.40;;;;;;;11.24;92.01;99863.13;5056468;28;20118;-76
2022/02/07 12:49:47;;;;;;;16.45;4.75;;;;;;;11.23;92.45;99870.66;5056089;28;20086;-76
2022/02/07 12:52:12;;;;;;;18.13;5.63;;;;;;;11.18;92.17;99856.25;5055807;28;20040;-75
2022/02/07 12:54:43;;;;;;;21.75;8.35;;;;;;;11.26;92.06;99866.34;5055673;28;20029;-76
2022/02/07 12:57:15;;;;;;;24.95;7.97;;;;;;;11.40;91.75;99844.28;5055971;28;20483;-76
2022/02/07 12:59:52;;;;;;;45.33;12.63;;;;;;;11.51;90.93;99833.28;5056076;28;20442;-76
2022/02/07 13:02:29;;;;;;;16.50;7.22;;;;;;;11.42;90.20;99829.97;5055486;28;20028;-76
2022/02/07 13:04:58;;;;;;;22.63;6.40;;;;;;;11.63;90.77;99835.03;5056228;28;20025;-76
2022/02/07 13:07:27;;;;;;;13.82;7.18;;;;;;;11.55;89.48;99828.53;5055774;28;20036;-76
2022/02/07 13:09:56;;;;;;;21.77;7.70;;;;;;;11.62;89.05;99827.84;5056639;28;20071;-76
2022/02/07 13:14:57;;;;;;;24.40;10.90;;;;;;;11.68;87.80;99815.19;5057563;28;20029;-75
2022/02/07 13:17:27;;;;;;;27.02;10.43;;;;;;;11.74;87.47;99808.88;5056502;28;20392;-75
2022/02/07 13:19:54;;;;;;;26.10;7.85;;;;;;;11.73;87.83;99800.91;5056128;28;20098;-75
2022/02/07 13:22:25;;;;;;;27.77;9.00;;;;;;;11.79;87.64;99796.59;5056036;28;20031;-75
2022/02/07 13:24:56;;;;;;;29.05;7.60;;;;;;;11.82;86.68;99792.25;5057942;28;20029;-76
2022/02/07 13:27:27;;;;;;;18.30;6.72;;;;;;;11.92;86.05;99797.97;5059597;28;20028;-77
2022/02/07 13:29:57;;;;;;;27.92;9.02;;;;;;;11.98;85.04;99804.00;5057231;28;20418;-77
2022/02/07 13:32:28;;;;;;;26.60;7.70;;;;;;;12.04;83.42;99796.91;5056707;28;20025;-76
2022/02/07 13:35:11;;;;;;;16.60;7.72;;;;;;;12.29;83.14;99786.00;5056537;28;20105;-77
2022/02/07 13:37:39;;;;;;;24.50;10.02;;;;;;;12.53;81.15;99793.81;5056192;28;20116;-77
2022/02/07 13:40:14;;;;;;;13.85;5.65;;;;;;;12.39;81.09;99802.03;5056319;28;20562;-77
2022/02/07 13:42:46;;;;;;;19.33;6.57;;;;;;;12.06;83.45;99792.56;5055487;28;20454;-74
2022/02/07 13:45:19;;;;;;;15.32;5.97;;;;;;;11.82;85.69;99797.84;5056310;28;20075;-75
2022/02/07 13:47:48;;;;;;;34.85;12.35;;;;;;;11.85;87.06;99803.47;5053557;28;20047;-76
2022/02/07 13:50:22;;;;;;;24.25;9.63;;;;;;;12.01;88.02;99801.25;5055203;28;20095;-75
2022/02/07 13:52:53;;;;;;;35.65;13.48;;;;;;;12.09;88.18;99804.13;5055006;28;20418;-75
2022/02/07 13:55:21;;;;;;;31.25;15.25;;;;;;;12.20;88.41;99796.69;5054881;28;20464;-75
2022/02/07 13:57:57;;;;;;;41.03;14.40;;;;;;;11.94;88.97;99764.16;5054364;28;20037;-75
2022/02/07 14:00:26;;;;;;;30.92;11.52;;;;;;;12.07;89.02;99776.63;5054466;28;20036;-75
2022/02/07 14:03:05;;;;;;;34.78;13.15;;;;;;;11.84;91.60;99768.41;5054612;28;20032;-75
2022/02/07 14:05:39;;;;;;;42.28;16.65;;;;;;;11.78;91.35;99778.28;5054286;28;20123;-75
2022/02/07 14:08:06;;;;;;;39.85;14.90;;;;;;;11.84;90.73;99776.78;5055825;28;20040;-76
2022/02/07 14:10:38;;;;;;;34.72;13.40;;;;;;;11.97;92.40;99783.69;5054205;28;20064;-75
2022/02/07 14:13:09;;;;;;;52.42;19.75;;;;;;;11.95;90.42;99779.69;5055928;28;20044;-75
2022/02/07 14:15:36;;;;;;;47.70;19.92;;;;;;;11.87;90.02;99778.00;5055083;28;20021;-75
2022/02/07 14:18:06;;;;;;;41.58;13.45;;;;;;;11.92;90.06;99786.81;5055067;28;20496;-75
2022/02/07 14:20:34;;;;;;;37.20;12.45;;;;;;;11.84;88.67;99771.19;5054476;28;20021;-75